Time;durP1;ratioP1;P1;durP2;ratioP2;P2;SDS_P1;SDS_P2;PMS_P1;PMS_P2;Temp;Humidity;BMP_temperature;BMP_pressure;BME280_temperature;BME280_humidity;BME280_pressure;Samples;Min_cycle;Max_cycle;Signal;HPM_P1;HPM_P2
2023/07/29 00:00:40;;;;;;;9.23;8.73;;;;;;;18.39;67.09;92746.44;5041007;28;20224;-74
2023/07/29 00:03:06;;;;;;;8.13;7.70;;;;;;;18.22;68.57;92742.03;5031028;28;20199;-74
2023/07/29 00:05:31;;;;;;;9.53;8.90;;;;;;;18.36;66.83;92747.84;5038867;28;20302;-74
2023/07/29 00:07:57;;;;;;;8.93;8.33;;;;;;;18.35;66.91;92748.91;5050560;28;20219;-73
2023/07/29 00:10:22;;;;;;;8.57;8.07;;;;;;;18.20;68.63;92756.66;5083067;28;21573;-73
2023/07/29 00:12:48;;;;;;;9.57;8.87;;;;;;;18.14;68.98;92750.00;5050639;28;20196;-74
2023/07/29 00:15:13;;;;;;;8.57;8.10;;;;;;;18.12;68.80;92754.81;5050159;28;20228;-74
2023/07/29 00:17:39;;;;;;;9.13;8.53;;;;;;;18.29;68.41;92752.84;5049391;28;20195;-73
2023/07/29 00:20:06;;;;;;;8.73;8.23;;;;;;;18.25;68.38;92756.47;5045440;28;20236;-73
2023/07/29 00:22:31;;;;;;;9.03;8.53;;;;;;;18.16;69.03;92755.75;5028193;28;20195;-74
2023/07/29 00:24:59;;;;;;;8.73;8.23;;;;;;;18.18;69.02;92751.69;5033706;28;20290;-74
2023/07/29 00:27:25;;;;;;;8.87;8.37;;;;;;;18.09;68.57;92743.03;5050171;28;20186;-73
2023/07/29 00:29:51;;;;;;;9.33;8.57;;;;;;;18.19;68.59;92741.91;5049236;28;20235;-74
2023/07/29 00:32:16;;;;;;;9.13;8.63;;;;;;;18.06;69.86;92738.41;5050529;28;20186;-73
2023/07/29 00:34:42;;;;;;;8.73;8.23;;;;;;;18.04;70.19;92750.41;5049986;28;20218;-73
2023/07/29 00:37:07;;;;;;;7.83;7.43;;;;;;;17.87;71.08;92745.22;5050058;28;20195;-74
2023/07/29 00:39:33;;;;;;;9.07;8.57;;;;;;;17.99;70.22;92740.78;5049785;28;20187;-73
2023/07/29 00:41:58;;;;;;;9.20;8.70;;;;;;;17.85;69.19;92734.97;5050219;28;20174;-74
2023/07/29 00:44:24;;;;;;;9.13;8.47;;;;;;;18.03;69.53;92743.53;5050005;28;20704;-73
2023/07/29 00:46:53;;;;;;;8.63;8.20;;;;;;;17.95;70.31;92737.22;5049633;28;20228;-74
2023/07/29 00:49:20;;;;;;;9.40;8.80;;;;;;;17.76;70.02;92733.47;5049508;28;20221;-73
2023/07/29 00:51:46;;;;;;;9.27;8.67;;;;;;;17.85;71.43;92736.81;5049441;28;20218;-74
2023/07/29 00:54:12;;;;;;;8.80;8.07;;;;;;;17.85;71.56;92734.97;5050205;28;20219;-74
2023/07/29 00:56:37;;;;;;;9.20;8.70;;;;;;;17.89;71.71;92737.72;5049533;28;20222;-74
2023/07/29 00:59:04;;;;;;;9.43;8.93;;;;;;;17.90;71.61;92734.00;5050132;28;20197;-73
2023/07/29 01:01:30;;;;;;;9.37;8.63;;;;;;;17.76;72.10;92736.09;5049766;28;20218;-73
2023/07/29 01:03:56;;;;;;;9.63;9.13;;;;;;;17.42;73.21;92719.28;5049726;28;20202;-72
2023/07/29 01:06:53;;;;;;;8.33;7.93;;;;;;;17.62;71.86;92725.75;5049369;28;20236;-74
2023/07/29 01:09:27;;;;;;;8.67;8.17;;;;;;;17.63;71.39;92723.88;5049458;28;20253;-73
2023/07/29 01:12:02;;;;;;;8.70;8.20;;;;;;;17.44;72.88;92727.72;5049565;28;20232;-74
2023/07/29 01:14:40;;;;;;;9.30;8.70;;;;;;;17.52;72.25;92726.91;5047984;28;20217;-74
2023/07/29 01:17:13;;;;;;;9.60;9.00;;;;;;;17.39;73.05;92719.94;5049240;28;20225;-74
2023/07/29 01:20:05;;;;;;;10.97;10.27;;;;;;;17.53;73.23;92725.81;5054256;28;20193;-70
2023/07/29 01:22:32;;;;;;;9.40;8.70;;;;;;;17.35;73.51;92723.53;5038919;28;20195;-70
2023/07/29 01:24:59;;;;;;;10.10;9.33;;;;;;;17.34;72.99;92728.00;5041226;28;20227;-73
2023/07/29 01:27:24;;;;;;;9.23;8.73;;;;;;;17.21;74.26;92723.69;5020138;28;20184;-74
2023/07/29 01:29:50;;;;;;;9.80;9.30;;;;;;;17.23;74.70;92732.09;5028124;28;20279;-75
2023/07/29 01:32:31;;;;;;;9.37;8.87;;;;;;;17.28;74.25;92731.91;5047319;28;20201;-75
2023/07/29 01:35:09;;;;;;;9.30;8.70;;;;;;;17.09;75.01;92734.16;5046425;28;20230;-75
2023/07/29 01:37:39;;;;;;;10.37;9.77;;;;;;;17.16;75.03;92721.25;5047473;28;20205;-75
2023/07/29 01:40:07;;;;;;;9.80;9.30;;;;;;;17.19;74.26;92712.72;5046053;28;20237;-74
2023/07/29 01:42:32;;;;;;;10.07;9.37;;;;;;;17.24;73.32;92728.38;5050406;28;20185;-69
2023/07/29 01:44:58;;;;;;;12.07;9.30;;;;;;;17.22;73.10;92721.84;5051893;28;20293;-68
2023/07/29 01:47:23;;;;;;;9.50;8.80;;;;;;;17.19;73.49;92720.63;5055535;28;20220;-68
2023/07/29 01:49:48;;;;;;;9.90;9.10;;;;;;;17.14;75.28;92722.66;5051742;28;20194;-71
2023/07/29 01:52:14;;;;;;;10.03;9.40;;;;;;;17.13;75.54;92721.09;5051643;28;20197;-69
2023/07/29 01:54:39;;;;;;;9.57;8.97;;;;;;;17.10;75.26;92727.81;5040764;28;20292;-69
2023/07/29 01:57:04;;;;;;;11.77;10.77;;;;;;;17.24;74.45;92725.75;5035087;28;20227;-68
2023/07/29 01:59:30;;;;;;;9.17;8.47;;;;;;;17.16;75.16;92723.13;5044005;28;20257;-68
2023/07/29 02:01:55;;;;;;;10.17;9.57;;;;;;;17.20;75.19;92718.75;5051894;28;20232;-68
2023/07/29 02:04:22;;;;;;;10.13;9.43;;;;;;;17.24;74.65;92724.94;5051812;28;20200;-68
2023/07/29 02:06:47;;;;;;;10.57;9.97;;;;;;;17.17;74.76;92720.16;5050063;28;20209;-68
2023/07/29 02:09:12;;;;;;;9.40;8.90;;;;;;;17.08;74.60;92719.41;5057804;28;20203;-70
2023/07/29 02:11:38;;;;;;;10.00;9.43;;;;;;;17.02;75.11;92719.91;5048084;28;20252;-70
2023/07/29 02:14:03;;;;;;;8.77;8.27;;;;;;;17.01;74.77;92724.38;5051452;28;20320;-70
2023/07/29 02:16:28;;;;;;;10.23;9.60;;;;;;;17.02;75.42;92719.91;5046365;28;20425;-69
2023/07/29 02:18:54;;;;;;;10.70;10.10;;;;;;;16.92;75.87;92722.84;5049198;28;20180;-68
2023/07/29 02:21:20;;;;;;;8.50;7.90;;;;;;;16.77;76.04;92720.72;5052049;28;20225;-75
2023/07/29 02:23:45;;;;;;;9.83;9.23;;;;;;;16.92;76.06;92736.81;5084580;28;20190;-75
2023/07/29 02:26:11;;;;;;;9.73;9.03;;;;;;;17.05;76.10;92733.25;5052218;28;20239;-74
2023/07/29 02:28:36;;;;;;;10.33;9.67;;;;;;;16.94;75.48;92718.06;5051627;28;20182;-74
2023/07/29 02:31:21;;;;;;;9.20;8.70;;;;;;;16.99;76.53;92742.41;5039843;28;20223;-74
2023/07/29 02:33:47;;;;;;;9.20;8.60;;;;;;;16.88;76.92;92720.09;5032561;28;20214;-74
2023/07/29 02:36:13;;;;;;;10.50;9.60;;;;;;;16.97;76.44;92734.03;5046146;28;20229;-74
2023/07/29 02:38:40;;;;;;;9.47;8.70;;;;;;;16.98;76.10;92730.28;5051226;28;20221;-74
2023/07/29 02:41:06;;;;;;;10.00;9.27;;;;;;;16.75;76.36;92689.41;5051590;28;20229;-74
2023/07/29 02:43:31;;;;;;;10.70;9.87;;;;;;;16.95;76.07;92730.16;5050770;28;20178;-74
2023/07/29 02:45:56;;;;;;;10.70;9.70;;;;;;;16.83;77.68;92720.25;5062752;28;20240;-74
2023/07/29 02:48:22;;;;;;;10.43;9.70;;;;;;;16.80;77.07;92723.53;5051713;28;20182;-74
2023/07/29 02:50:47;;;;;;;10.47;9.70;;;;;;;16.73;76.95;92722.44;5040362;28;20222;-74
2023/07/29 02:53:13;;;;;;;10.47;9.87;;;;;;;16.75;76.67;92723.69;5029918;28;20190;-75
2023/07/29 02:55:42;;;;;;;9.60;9.00;;;;;;;16.63;77.47;92720.91;5040189;28;20230;-74
2023/07/29 02:58:07;;;;;;;8.97;8.20;;;;;;;16.73;76.98;92722.44;5051912;28;20186;-74
2023/07/29 03:00:33;;;;;;;9.23;8.53;;;;;;;16.73;76.78;92723.19;5051692;28;20233;-75
2023/07/29 03:02:59;;;;;;;9.50;8.90;;;;;;;16.85;76.36;92723.34;5052409;28;20189;-75
2023/07/29 03:05:27;;;;;;;9.10;8.50;;;;;;;16.88;76.33;92727.22;5050546;28;20230;-75
2023/07/29 03:07:52;;;;;;;9.40;8.90;;;;;;;16.91;76.36;92735.28;5051923;28;20192;-74
2023/07/29 03:10:18;;;;;;;9.07;8.47;;;;;;;16.86;76.65;92734.66;5051413;28;20240;-75
2023/07/29 03:16:44;;;;;;;10.90;9.93;;;;;;;16.54;78.41;92746.50;5100591;27;20305;-75
2023/07/29 03:19:09;;;;;;;10.97;10.37;;;;;;;16.48;78.42;92749.59;5086445;28;20212;-75
2023/07/29 03:21:34;;;;;;;10.97;10.37;;;;;;;16.53;77.94;92744.94;5068088;28;20226;-75
2023/07/29 03:24:00;;;;;;;10.00;9.40;;;;;;;16.73;77.66;92733.75;5067108;28;20189;-74
2023/07/29 03:26:25;;;;;;;10.83;10.03;;;;;;;17.08;77.48;92745.00;5062882;28;20232;-76
2023/07/29 03:28:51;;;;;;;10.83;10.13;;;;;;;17.07;77.99;92746.91;5064926;28;20664;-75
2023/07/29 03:31:16;;;;;;;11.00;10.30;;;;;;;17.09;78.51;92757.88;5073184;28;20262;-75
2023/07/29 03:33:42;;;;;;;11.50;10.77;;;;;;;17.41;77.02;92752.06;5086034;28;21342;-75
2023/07/29 03:36:07;;;;;;;10.93;10.30;;;;;;;17.35;77.05;92750.66;5086508;28;20243;-75
2023/07/29 03:38:35;;;;;;;10.53;9.93;;;;;;;17.47;76.64;92753.47;5086231;28;20209;-75
2023/07/29 03:41:02;;;;;;;10.10;9.50;;;;;;;17.24;77.74;92754.75;5086223;28;20224;-75
2023/07/29 03:43:27;;;;;;;22.43;12.33;;;;;;;17.34;79.04;92754.41;5087660;28;20196;-75
2023/07/29 03:45:53;;;;;;;31.93;13.63;;;;;;;17.33;78.89;92752.88;5085913;28;20281;-75
2023/07/29 03:48:18;;;;;;;13.13;11.80;;;;;;;17.47;78.12;92756.09;5086214;28;20254;-75
2023/07/29 03:50:43;;;;;;;10.87;10.17;;;;;;;17.52;78.12;92755.16;5085372;28;20277;-75
2023/07/29 03:53:09;;;;;;;10.97;10.27;;;;;;;17.31;80.85;92747.13;5085830;28;20189;-75
2023/07/29 03:55:35;;;;;;;10.40;9.70;;;;;;;17.30;81.04;92744.78;5085259;28;20294;-74
2023/07/29 03:58:00;;;;;;;10.03;9.23;;;;;;;17.37;80.77;92740.56;5086368;28;20181;-74
2023/07/29 04:00:27;;;;;;;11.30;10.50;;;;;;;17.49;80.11;92750.50;5083201;28;20218;-75
2023/07/29 04:02:52;;;;;;;11.37;10.77;;;;;;;17.41;81.04;92749.44;5086518;28;20185;-75
2023/07/29 04:05:18;;;;;;;11.53;10.73;;;;;;;17.65;79.29;92748.88;5085251;28;20226;-74
2023/07/29 04:07:44;;;;;;;11.60;10.70;;;;;;;17.60;79.05;92741.91;5086393;28;20185;-75
2023/07/29 04:10:10;;;;;;;10.23;9.63;;;;;;;17.69;79.49;92739.25;5082930;28;20258;-75
2023/07/29 04:12:35;;;;;;;11.17;10.40;;;;;;;17.79;78.24;92746.03;5082888;28;20182;-76
2023/07/29 04:15:01;;;;;;;11.63;10.83;;;;;;;17.92;77.24;92763.50;5084850;28;20228;-75
2023/07/29 04:17:26;;;;;;;12.03;11.20;;;;;;;17.90;73.81;92765.72;5077520;28;20183;-75
2023/07/29 04:19:51;;;;;;;12.30;11.33;;;;;;;17.91;75.30;92761.97;5085029;28;20288;-75
2023/07/29 04:22:17;;;;;;;11.63;10.83;;;;;;;17.89;75.39;92753.56;5085574;28;20185;-76
2023/07/29 04:24:42;;;;;;;11.07;10.27;;;;;;;17.96;73.59;92762.53;5085011;28;20249;-75
2023/07/29 04:27:08;;;;;;;12.20;11.10;;;;;;;18.45;70.26;92756.50;5077371;28;20197;-75
2023/07/29 04:29:35;;;;;;;10.07;9.40;;;;;;;18.40;71.96;92763.84;5071241;28;20201;-74
2023/07/29 04:32:01;;;;;;;11.43;10.70;;;;;;;18.25;73.79;92761.75;5071200;28;20175;-74
2023/07/29 04:34:26;;;;;;;12.20;11.40;;;;;;;18.24;74.16;92762.84;5072351;28;20228;-75
2023/07/29 04:36:52;;;;;;;11.73;10.93;;;;;;;18.32;74.09;92762.78;5071303;28;20213;-75
2023/07/29 04:39:18;;;;;;;10.87;10.17;;;;;;;18.31;75.07;92766.53;5071582;28;20212;-75
2023/07/29 04:41:43;;;;;;;11.77;10.97;;;;;;;18.23;76.35;92762.06;5070690;28;20229;-74
2023/07/29 04:44:08;;;;;;;11.77;10.87;;;;;;;18.38;74.09;92771.34;5071685;28;20319;-75
2023/07/29 04:46:35;;;;;;;11.30;10.30;;;;;;;18.57;72.93;92769.78;5071667;28;20222;-75
2023/07/29 04:49:00;;;;;;;12.53;11.53;;;;;;;18.49;72.99;92772.50;5103941;28;20200;-75
2023/07/29 04:51:26;;;;;;;11.53;10.83;;;;;;;18.66;73.58;92772.38;5067416;28;20278;-75
2023/07/29 04:53:51;;;;;;;12.57;11.67;;;;;;;18.89;72.65;92779.66;5070971;28;20183;-75
2023/07/29 04:56:16;;;;;;;11.80;10.73;;;;;;;19.00;72.54;92777.38;5071024;28;20806;-75
2023/07/29 04:58:42;;;;;;;12.57;11.47;;;;;;;19.08;72.28;92777.28;5071816;28;20208;-75
2023/07/29 05:01:07;;;;;;;11.10;10.30;;;;;;;19.38;70.62;92779.84;5071308;28;20226;-74
2023/07/29 05:03:33;;;;;;;12.80;11.60;;;;;;;19.08;71.71;92779.16;5071584;28;20196;-75
2023/07/29 05:05:59;;;;;;;11.77;11.07;;;;;;;19.05;71.35;92790.41;5069348;28;20237;-75
2023/07/29 05:08:27;;;;;;;12.27;11.33;;;;;;;19.15;71.88;92790.75;5068831;28;20238;-74
2023/07/29 05:10:53;;;;;;;11.67;10.87;;;;;;;18.98;72.38;92784.84;5103741;28;20215;-75
2023/07/29 05:13:19;;;;;;;11.73;10.80;;;;;;;19.10;71.59;92790.19;5071590;28;20183;-75
2023/07/29 05:15:45;;;;;;;13.63;11.73;;;;;;;19.16;72.77;92792.31;5067524;28;20912;-74
2023/07/29 05:18:11;;;;;;;11.93;10.87;;;;;;;19.31;72.17;92784.88;5064250;28;20195;-74
2023/07/29 05:20:36;;;;;;;11.50;10.57;;;;;;;19.42;72.16;92791.31;5070212;28;20234;-75
2023/07/29 05:23:01;;;;;;;11.53;10.77;;;;;;;19.44;71.84;92802.34;5070574;28;20202;-75
2023/07/29 05:25:27;;;;;;;12.17;11.17;;;;;;;19.69;70.42;92799.41;5069380;28;20220;-74
2023/07/29 05:27:52;;;;;;;11.87;10.73;;;;;;;19.79;69.61;92801.63;5070109;28;20187;-74
2023/07/29 05:30:18;;;;;;;12.93;11.93;;;;;;;20.03;67.88;92806.94;5069750;28;20224;-75
2023/07/29 05:32:44;;;;;;;12.80;11.80;;;;;;;19.87;67.53;92789.38;5070318;28;20187;-75
2023/07/29 05:35:10;;;;;;;11.83;10.97;;;;;;;20.08;66.98;92804.06;5068686;28;20486;-78
2023/07/29 05:37:38;;;;;;;13.80;12.50;;;;;;;20.14;66.21;92808.06;5070374;28;20249;-77
2023/07/29 05:40:04;;;;;;;13.13;10.93;;;;;;;20.25;66.18;92806.53;5063765;28;20252;-78
2023/07/29 05:42:29;;;;;;;12.17;10.97;;;;;;;20.36;65.58;92814.78;5065406;28;20193;-77
2023/07/29 05:44:55;;;;;;;13.00;11.83;;;;;;;19.77;68.13;92817.09;5069273;28;20283;-77
2023/07/29 05:47:20;;;;;;;12.73;11.60;;;;;;;19.73;68.40;92818.06;5066139;28;20177;-78
2023/07/29 05:49:46;;;;;;;12.43;11.20;;;;;;;19.82;68.37;92819.53;5069101;28;20191;-78
2023/07/29 05:52:11;;;;;;;12.60;11.67;;;;;;;19.99;68.13;92823.84;5068986;28;20192;-78
2023/07/29 05:54:36;;;;;;;11.80;10.87;;;;;;;20.74;63.72;92812.53;5066112;28;20202;-76
2023/07/29 05:57:02;;;;;;;12.60;11.40;;;;;;;23.41;54.88;92827.88;5065191;28;20192;-78
2023/07/29 05:59:29;;;;;;;11.15;10.20;;;;;;;25.96;47.51;92834.69;5065657;28;20196;-77
2023/07/29 06:01:56;;;;;;;11.35;10.40;;;;;;;29.08;39.05;92838.00;5068514;28;20232;-78
2023/07/29 06:04:21;;;;;;;11.32;10.25;;;;;;;32.18;32.65;92863.41;5065993;28;20185;-78
2023/07/29 06:06:47;;;;;;;10.15;9.38;;;;;;;34.34;28.43;92857.34;5062993;28;20236;-78
2023/07/29 06:09:12;;;;;;;10.35;9.52;;;;;;;32.27;30.42;92855.56;5096895;28;20249;-78
2023/07/29 06:11:37;;;;;;;10.23;9.48;;;;;;;33.63;29.02;92857.25;5061033;28;20233;-78
2023/07/29 06:14:03;;;;;;;9.93;9.10;;;;;;;29.38;34.26;92846.38;5068521;28;20201;-79
2023/07/29 06:16:28;;;;;;;11.07;10.20;;;;;;;35.40;26.28;92861.81;5065667;28;20229;-73
2023/07/29 06:18:53;;;;;;;9.75;8.80;;;;;;;37.70;23.54;92876.28;5078424;28;20193;-72
2023/07/29 06:21:19;;;;;;;8.00;7.40;;;;;;;37.24;23.24;92866.16;5064690;28;20210;-73
2023/07/29 06:23:45;;;;;;;9.32;8.40;;;;;;;34.21;26.84;92845.63;5067997;28;20209;-73
2023/07/29 06:26:11;;;;;;;9.15;8.45;;;;;;;37.67;22.44;92825.38;5065282;28;20255;-70
2023/07/29 06:28:36;;;;;;;7.88;7.28;;;;;;;38.27;22.51;92864.88;5069396;28;20196;-70
2023/07/29 06:31:01;;;;;;;7.88;7.38;;;;;;;35.44;25.12;92837.28;5054329;28;20229;-70
2023/07/29 06:33:27;;;;;;;8.98;8.27;;;;;;;37.35;23.43;92858.41;5047417;28;20190;-70
2023/07/29 06:35:52;;;;;;;8.38;7.45;;;;;;;37.72;22.43;92854.78;5043756;28;20232;-70
2023/07/29 06:38:21;;;;;;;8.60;7.80;;;;;;;36.85;23.16;92853.00;5061625;28;20194;-69
2023/07/29 06:40:49;;;;;;;9.00;8.23;;;;;;;35.18;24.83;92841.81;5069812;28;20237;-69
2023/07/29 06:43:15;;;;;;;9.48;8.68;;;;;;;30.51;31.36;92825.03;5064062;28;20185;-68
2023/07/29 06:45:40;;;;;;;9.80;7.55;;;;;;;28.05;35.37;92814.16;5055701;28;20217;-69
2023/07/29 06:48:05;;;;;;;8.75;8.15;;;;;;;26.09;40.58;92805.78;5069124;28;20246;-69
2023/07/29 06:50:31;;;;;;;10.27;9.20;;;;;;;25.23;44.39;92805.25;5061804;28;20982;-69
2023/07/29 06:52:56;;;;;;;9.73;8.73;;;;;;;25.59;43.33;92803.78;5057798;28;20196;-70
2023/07/29 06:55:21;;;;;;;10.40;9.32;;;;;;;24.36;48.18;92796.78;5062367;28;20224;-72
2023/07/29 06:57:47;;;;;;;10.52;8.95;;;;;;;24.61;46.58;92796.00;5066013;28;20210;-71
2023/07/29 07:00:13;;;;;;;11.60;10.40;;;;;;;24.55;46.73;92791.31;5061258;28;20241;-68
2023/07/29 07:02:38;;;;;;;10.73;9.65;;;;;;;23.50;50.45;92807.09;5067836;28;20272;-68
2023/07/29 07:05:04;;;;;;;10.00;8.95;;;;;;;23.36;50.78;92806.81;5064767;28;20316;-69
2023/07/29 07:07:30;;;;;;;11.00;9.93;;;;;;;23.54;50.62;92801.84;5067793;28;20222;-68
2023/07/29 07:09:55;;;;;;;11.18;9.80;;;;;;;23.55;51.16;92795.38;5064442;28;20244;-69
2023/07/29 07:12:21;;;;;;;11.73;10.45;;;;;;;22.92;52.32;92802.09;5068466;28;20199;-68
2023/07/29 07:14:46;;;;;;;10.93;9.27;;;;;;;23.27;52.96;92802.88;5061065;28;20208;-69
2023/07/29 07:17:11;;;;;;;13.88;9.57;;;;;;;23.92;50.75;92806.31;5061958;28;20199;-67
2023/07/29 07:19:37;;;;;;;11.13;10.05;;;;;;;24.18;48.69;92804.50;5065330;28;20193;-68
2023/07/29 07:22:02;;;;;;;11.38;9.52;;;;;;;24.15;49.30;92802.53;5059336;28;21159;-69
2023/07/29 07:24:28;;;;;;;10.82;9.93;;;;;;;24.33;49.01;92798.25;5067854;28;20244;-70
2023/07/29 07:26:53;;;;;;;11.75;8.98;;;;;;;24.25;51.15;92801.94;5060657;28;20232;-71
2023/07/29 07:29:18;;;;;;;11.43;10.40;;;;;;;24.16;50.63;92803.28;5063866;28;20184;-71
2023/07/29 07:31:52;;;;;;;11.48;10.60;;;;;;;24.09;50.63;92795.19;5061883;28;20227;-69
2023/07/29 07:34:17;;;;;;;10.75;9.70;;;;;;;23.88;49.81;92800.16;5067490;28;20216;-70
2023/07/29 07:36:43;;;;;;;11.70;10.70;;;;;;;24.38;48.97;92795.28;5064307;28;20231;-70
2023/07/29 07:39:08;;;;;;;10.07;9.15;;;;;;;24.41;47.82;92791.88;5063030;28;20227;-69
2023/07/29 07:41:33;;;;;;;12.43;9.35;;;;;;;24.37;49.29;92800.97;5096122;28;20223;-71
2023/07/29 07:43:59;;;;;;;10.70;9.90;;;;;;;24.11;49.27;92798.28;5067958;28;20235;-70
2023/07/29 07:46:24;;;;;;;11.25;10.55;;;;;;;24.24;48.98;92805.75;5066555;28;20219;-70
2023/07/29 07:48:49;;;;;;;12.40;11.20;;;;;;;24.01;48.71;92804.19;5058101;28;20219;-70
2023/07/29 07:51:15;;;;;;;10.70;9.75;;;;;;;23.38;49.00;92799.25;5066229;28;20284;-70
2023/07/29 07:53:40;;;;;;;11.68;10.43;;;;;;;24.21;48.61;92800.34;5063504;28;20180;-69
2023/07/29 07:56:06;;;;;;;13.88;10.02;;;;;;;24.43;48.88;92799.53;5056285;28;20237;-70
2023/07/29 07:58:32;;;;;;;11.40;10.57;;;;;;;24.25;47.66;92801.19;5061253;28;20195;-70
2023/07/29 08:01:08;;;;;;;9.93;9.02;;;;;;;24.09;46.72;92787.97;5064312;28;20236;-70
2023/07/29 08:03:35;;;;;;;10.57;9.77;;;;;;;24.26;47.26;92800.81;5064770;28;20200;-69
2023/07/29 08:06:01;;;;;;;12.30;11.23;;;;;;;24.30;47.21;92806.97;5069392;28;20235;-68
2023/07/29 08:08:26;;;;;;;11.50;10.45;;;;;;;24.31;47.91;92813.09;5071563;28;20200;-68
2023/07/29 08:10:54;;;;;;;10.57;9.70;;;;;;;24.49;48.42;92800.78;5065404;28;20324;-67
2023/07/29 08:13:21;;;;;;;10.90;10.00;;;;;;;24.98;47.75;92798.81;5068901;28;20192;-67
2023/07/29 08:15:50;;;;;;;10.30;9.60;;;;;;;25.13;46.24;92813.91;5064806;28;20236;-68
2023/07/29 08:18:16;;;;;;;10.65;9.95;;;;;;;24.81;46.20;92807.38;5067246;28;20219;-69
2023/07/29 08:20:51;;;;;;;11.32;10.25;;;;;;;24.69;46.03;92807.56;5068580;28;20243;-68
2023/07/29 08:23:16;;;;;;;10.65;9.73;;;;;;;25.20;45.83;92820.09;5069559;28;20182;-68
2023/07/29 08:25:41;;;;;;;9.35;8.85;;;;;;;24.80;45.62;92811.16;5070007;28;20243;-69
2023/07/29 08:28:07;;;;;;;11.05;9.52;;;;;;;24.70;45.16;92809.13;5068795;28;20212;-68
2023/07/29 08:30:32;;;;;;;9.27;8.68;;;;;;;24.70;45.06;92809.88;5062798;28;20234;-68
2023/07/29 08:32:57;;;;;;;9.07;8.38;;;;;;;24.59;44.60;92808.19;5067057;28;20242;-67
2023/07/29 08:35:23;;;;;;;10.80;9.70;;;;;;;25.28;45.15;92807.56;5060089;28;20236;-68
2023/07/29 08:37:48;;;;;;;9.30;8.70;;;;;;;25.59;43.61;92811.78;5047875;28;20259;-69
2023/07/29 08:40:14;;;;;;;10.30;9.40;;;;;;;25.20;44.84;92811.28;5050455;28;20229;-68
2023/07/29 08:42:42;;;;;;;10.55;9.63;;;;;;;24.98;44.21;92804.16;5069207;28;20184;-68
2023/07/29 08:45:08;;;;;;;9.80;8.85;;;;;;;25.33;43.92;92804.63;5063647;28;20232;-68
2023/07/29 08:47:34;;;;;;;10.43;9.55;;;;;;;24.89;43.12;92811.66;5067222;28;20205;-68
2023/07/29 08:50:02;;;;;;;10.90;10.13;;;;;;;25.32;44.09;92802.28;5069663;28;20237;-68
2023/07/29 08:52:29;;;;;;;9.95;9.02;;;;;;;25.19;43.31;92802.53;5064306;28;20217;-68
2023/07/29 08:54:55;;;;;;;9.80;9.13;;;;;;;24.96;43.49;92785.06;5068842;28;20243;-68
2023/07/29 08:57:22;;;;;;;9.98;9.18;;;;;;;25.18;44.74;92795.63;5062107;28;20216;-68
2023/07/29 08:59:47;;;;;;;8.95;8.30;;;;;;;25.16;41.66;92792.56;5101690;28;20224;-68
2023/07/29 09:02:13;;;;;;;9.88;9.18;;;;;;;25.37;43.61;92794.72;5063169;28;20185;-68
2023/07/29 09:04:38;;;;;;;10.43;8.80;;;;;;;25.72;42.36;92800.47;5064487;28;20201;-68
2023/07/29 09:07:06;;;;;;;9.25;8.65;;;;;;;25.74;41.33;92792.06;5069146;28;20189;-68
2023/07/29 09:09:31;;;;;;;9.68;8.98;;;;;;;26.19;40.04;92802.47;5067148;28;20189;-67
2023/07/29 09:11:57;;;;;;;8.85;8.25;;;;;;;26.20;39.68;92788.69;5049664;28;20760;-68
2023/07/29 09:14:23;;;;;;;9.63;8.77;;;;;;;26.02;38.08;92757.56;5050587;28;20175;-68
2023/07/29 09:16:49;;;;;;;9.35;8.38;;;;;;;25.98;38.96;92786.94;5064630;28;20225;-68
2023/07/29 09:19:14;;;;;;;9.32;8.75;;;;;;;25.84;40.49;92786.06;5067615;28;20196;-69
2023/07/29 09:21:40;;;;;;;9.18;8.60;;;;;;;26.13;39.42;92788.63;5069887;28;20323;-68
2023/07/29 09:24:07;;;;;;;11.88;8.77;;;;;;;25.96;39.92;92777.75;5069343;28;20196;-68
2023/07/29 09:26:33;;;;;;;9.20;8.45;;;;;;;26.21;39.88;92776.84;5070094;28;20290;-68
2023/07/29 09:28:59;;;;;;;9.63;8.82;;;;;;;26.62;36.84;92778.28;5070196;28;20216;-68
2023/07/29 09:31:27;;;;;;;12.50;9.00;;;;;;;26.55;38.83;92780.16;5083981;28;20224;-70
2023/07/29 09:34:02;;;;;;;9.00;8.30;;;;;;;26.59;37.55;92781.72;5089743;28;20199;-67
2023/07/29 09:36:31;;;;;;;10.45;8.82;;;;;;;26.64;38.05;92780.63;5043590;28;20229;-68
2023/07/29 09:38:57;;;;;;;8.20;7.70;;;;;;;26.61;37.04;92776.78;5042434;28;20282;-68
2023/07/29 09:41:27;;;;;;;10.90;8.98;;;;;;;26.56;38.69;92782.47;5046529;28;20241;-68
2023/07/29 09:43:57;;;;;;;7.88;7.43;;;;;;;26.56;37.64;92777.13;5039471;28;20194;-69
2023/07/29 09:46:25;;;;;;;8.68;8.07;;;;;;;26.64;37.16;92778.72;5033996;28;20217;-68
2023/07/29 09:48:54;;;;;;;8.40;7.82;;;;;;;26.84;37.57;92778.44;5043030;28;20194;-68
2023/07/29 09:51:19;;;;;;;8.48;7.90;;;;;;;26.97;35.27;92764.34;5054978;28;20205;-67
2023/07/29 09:53:50;;;;;;;9.63;8.73;;;;;;;26.77;36.49;92765.00;5050799;28;20195;-68
2023/07/29 09:56:16;;;;;;;9.15;8.55;;;;;;;26.82;37.42;92764.66;5048765;28;20221;-67
2023/07/29 09:58:47;;;;;;;8.90;8.30;;;;;;;26.92;36.15;92762.03;5049960;28;20186;-68
2023/07/29 10:01:14;;;;;;;8.05;7.55;;;;;;;26.86;37.35;92766.22;5063758;28;20221;-68
2023/07/29 10:03:40;;;;;;;9.38;8.70;;;;;;;27.05;36.57;92754.44;5065992;28;20193;-68
2023/07/29 10:06:06;;;;;;;8.35;7.75;;;;;;;26.32;35.91;92758.19;5070242;28;20259;-68
2023/07/29 10:08:35;;;;;;;8.50;7.85;;;;;;;26.77;36.25;92758.50;5071767;28;20181;-69
2023/07/29 10:11:02;;;;;;;9.82;8.88;;;;;;;27.19;34.75;92762.53;5070027;28;20217;-68
2023/07/29 10:13:27;;;;;;;8.90;8.15;;;;;;;27.28;34.03;92760.28;5070041;28;20243;-68
2023/07/29 10:15:55;;;;;;;8.15;7.70;;;;;;;27.24;34.85;92756.81;5058725;28;20234;-68
2023/07/29 10:18:23;;;;;;;9.32;8.30;;;;;;;27.45;34.09;92754.22;5049825;28;20245;-68
2023/07/29 10:20:50;;;;;;;8.60;8.13;;;;;;;27.21;34.80;92755.63;5049207;28;20370;-68
2023/07/29 10:23:18;;;;;;;8.10;7.60;;;;;;;27.35;34.60;92741.56;5049849;28;20258;-68
2023/07/29 10:25:47;;;;;;;7.32;6.93;;;;;;;27.41;33.13;92734.69;5048033;28;20234;-68
2023/07/29 10:28:15;;;;;;;8.65;8.15;;;;;;;27.54;34.67;92736.63;5050057;28;20209;-67
2023/07/29 10:30:41;;;;;;;8.30;7.80;;;;;;;27.47;34.58;92741.19;5049854;28;20230;-67
2023/07/29 10:33:07;;;;;;;8.05;7.50;;;;;;;27.49;33.43;92736.22;5049891;28;20197;-68
2023/07/29 10:35:33;;;;;;;13.18;11.90;;;;;;;27.64;34.37;92724.38;5058361;28;20221;-68
2023/07/29 10:38:00;;;;;;;135.57;12.98;;;;;;;27.51;34.67;92731.22;5069792;28;20211;-68
2023/07/29 10:40:25;;;;;;;7.57;7.13;;;;;;;27.27;33.20;92726.59;5069540;28;20239;-68
2023/07/29 10:43:03;;;;;;;7.90;7.30;;;;;;;27.06;34.89;92718.44;5069982;28;20185;-68
2023/07/29 10:45:37;;;;;;;8.63;8.13;;;;;;;26.87;36.42;92718.72;5067616;28;20736;-68
2023/07/29 10:48:32;;;;;;;7.68;7.22;;;;;;;27.16;34.25;92688.22;5065531;28;20192;-67
2023/07/29 10:51:32;;;;;;;7.85;7.45;;;;;;;27.37;33.28;92709.75;5040082;28;20261;-68
2023/07/29 10:54:17;;;;;;;8.10;7.50;;;;;;;27.46;33.13;92710.16;5069247;28;20216;-68
2023/07/29 10:56:47;;;;;;;8.40;7.88;;;;;;;27.42;34.23;92701.34;5061309;28;20311;-68
2023/07/29 10:59:12;;;;;;;8.52;8.02;;;;;;;27.67;34.62;92704.81;5062707;28;20257;-68
2023/07/29 11:01:43;;;;;;;8.65;8.15;;;;;;;27.92;33.19;92698.34;5067958;28;20224;-67
2023/07/29 11:04:23;;;;;;;8.00;7.20;;;;;;;27.68;33.08;92699.06;5065074;28;20185;-69
2023/07/29 11:07:22;;;;;;;7.88;7.40;;;;;;;27.62;33.34;92699.84;5060550;28;20232;-68
2023/07/29 11:09:48;;;;;;;8.98;8.27;;;;;;;27.74;33.13;92699.44;5057124;28;20184;-68
2023/07/29 11:12:47;;;;;;;7.13;6.80;;;;;;;27.69;33.11;92700.59;5061116;28;20177;-68
2023/07/29 11:15:24;;;;;;;7.78;7.38;;;;;;;27.84;32.24;92696.03;5058743;28;20240;-67
2023/07/29 11:17:55;;;;;;;8.80;7.22;;;;;;;27.99;32.25;92692.22;5063247;28;20184;-68
2023/07/29 11:20:32;;;;;;;7.57;7.15;;;;;;;28.13;33.52;92692.19;5063904;28;20235;-67
2023/07/29 11:23:02;;;;;;;8.05;7.30;;;;;;;28.07;32.11;92688.38;5064113;28;20224;-68
2023/07/29 11:25:28;;;;;;;7.65;7.25;;;;;;;28.23;31.45;92689.50;5060999;28;20213;-67
2023/07/29 11:27:56;;;;;;;7.63;7.22;;;;;;;28.53;32.35;92689.09;5067639;28;20223;-67
2023/07/29 11:30:23;;;;;;;7.88;7.10;;;;;;;28.80;30.75;92678.66;5068043;28;20388;-67